Time;durP1;ratioP1;P1;durP2;ratioP2;P2;SDS_P1;SDS_P2;PMS_P1;PMS_P2;Temp;Humidity;BMP_temperature;BMP_pressure;BME280_temperature;BME280_humidity;BME280_pressure;Samples;Min_cycle;Max_cycle;Signal;HPM_P1;HPM_P2
2023/10/22 00:00:54;;;;;;;50.13;30.63;;;;;;;9.16;100.00;99725.37;4792093;60;1141045;-67
2023/10/22 00:06:01;;;;;;;54.93;30.47;;;;;;;9.24;100.00;99717.63;4956190;57;1140887;-70
2023/10/22 00:11:06;;;;;;;44.90;28.90;;;;;;;9.24;100.00;99717.63;4985893;57;1141138;-68
2023/10/22 00:16:12;;;;;;;43.90;26.80;;;;;;;9.40;100.00;99725.07;4920559;58;1140837;-68
2023/10/22 00:21:17;;;;;;;48.73;29.48;;;;;;;9.45;100.00;99729.48;4809430;60;1141294;-68
2023/10/22 00:26:23;;;;;;;49.13;31.12;;;;;;;9.61;100.00;99725.89;4790907;59;1141143;-69
2023/10/22 00:31:30;;;;;;;47.58;30.25;;;;;;;9.61;100.00;99725.89;4914177;57;1140902;-69
2023/10/22 00:36:36;;;;;;;59.53;31.57;;;;;;;9.66;100.00;99723.66;5002913;57;1140916;-67
2023/10/22 00:41:42;;;;;;;61.37;33.83;;;;;;;9.73;100.00;99736.70;4985836;57;1140802;-67
2023/10/22 00:46:48;;;;;;;54.07;29.43;;;;;;;9.82;100.00;99739.02;4862013;58;1140998;-69
2023/10/22 00:51:54;;;;;;;52.83;31.50;;;;;;;9.78;100.00;99734.48;4915612;57;1140986;-69
2023/10/22 00:57:00;;;;;;;49.20;28.70;;;;;;;9.69;100.00;99722.08;4928584;57;1140886;-69
2023/10/22 01:02:05;;;;;;;45.60;25.30;;;;;;;9.70;100.00;99728.20;4763301;60;1141046;-67
2023/10/22 01:07:11;;;;;;;43.20;25.50;;;;;;;9.71;100.00;99724.11;4841737;58;1140989;-70
2023/10/22 01:12:18;;;;;;;39.43;24.87;;;;;;;9.71;100.00;99733.35;4859092;58;1140941;-68
2023/10/22 01:17:24;;;;;;;45.50;28.02;;;;;;;9.73;100.00;99730.58;4912651;57;1141085;-67
2023/10/22 01:22:30;;;;;;;53.63;28.33;;;;;;;9.73;100.00;99733.22;4791520;59;1141235;-69
2023/10/22 01:27:37;;;;;;;38.27;24.03;;;;;;;9.82;100.00;99734.57;4926998;57;1140851;-69
2023/10/22 01:32:43;;;;;;;42.53;25.63;;;;;;;9.87;100.00;99735.02;4868361;59;1140905;-67
2023/10/22 01:37:48;;;;;;;45.03;27.20;;;;;;;9.86;100.00;99729.86;4867677;59;1140810;-67
2023/10/22 01:42:54;;;;;;;38.88;25.27;;;;;;;9.89;100.00;99719.04;4873905;58;1140863;-68
2023/10/22 01:48:00;;;;;;;40.00;22.07;;;;;;;9.96;100.00;99725.44;4802910;59;1140670;-70
2023/10/22 01:53:07;;;;;;;39.13;25.90;;;;;;;10.00;100.00;99727.33;4790793;60;1140698;-69
2023/10/22 01:58:13;;;;;;;54.73;32.33;;;;;;;10.07;100.00;99736.41;4761731;59;1143140;-68
2023/10/22 02:03:19;;;;;;;47.70;27.65;;;;;;;10.09;100.00;99742.36;4749281;60;1142966;-68
2023/10/22 02:08:25;;;;;;;47.60;28.27;;;;;;;10.09;100.00;99746.33;4820171;58;1142963;-69
2023/10/22 02:13:31;;;;;;;53.80;27.40;;;;;;;10.09;100.00;99740.56;4856591;57;1143017;-69
2023/10/22 02:18:37;;;;;;;46.73;28.70;;;;;;;10.10;100.00;99736.95;4925237;57;1143066;-67
2023/10/22 02:23:43;;;;;;;41.13;25.13;;;;;;;10.16;100.00;99744.83;4791258;59;1142953;-67
2023/10/22 02:28:48;;;;;;;45.67;26.23;;;;;;;10.26;100.00;99743.55;4733196;59;1143206;-67
2023/10/22 02:34:09;;;;;;;37.80;25.50;;;;;;;10.25;100.00;99742.72;4792947;60;1143138;-70
2023/10/22 02:39:15;;;;;;;38.90;24.77;;;;;;;10.33;100.00;99748.66;4736574;60;1143091;-67
2023/10/22 02:44:23;;;;;;;44.10;27.23;;;;;;;10.40;100.00;99729.95;4911186;58;1143160;-70
2023/10/22 02:49:30;;;;;;;38.83;24.20;;;;;;;10.42;100.00;99727.52;4789814;59;1143245;-69
2023/10/22 02:54:37;;;;;;;44.93;27.90;;;;;;;10.36;100.00;99725.44;4846397;58;1143117;-69
2023/10/22 02:59:42;;;;;;;39.77;25.77;;;;;;;10.34;100.00;99722.09;4843952;58;1143062;-69
2023/10/22 03:04:48;;;;;;;36.23;24.57;;;;;;;10.32;100.00;99720.56;4852718;58;1143091;-67
2023/10/22 03:09:54;;;;;;;45.38;25.10;;;;;;;10.35;100.00;99722.94;4884425;58;1143173;-67
2023/10/22 03:14:59;;;;;;;42.20;26.17;;;;;;;10.31;100.00;99718.88;4840159;58;1143175;-70
2023/10/22 03:20:06;;;;;;;41.27;25.73;;;;;;;10.32;100.00;99709.98;4792587;60;1143126;-68
2023/10/22 03:25:12;;;;;;;42.33;27.20;;;;;;;10.29;100.00;99703.16;4800169;58;1142842;-69
2023/10/22 03:30:18;;;;;;;42.67;26.60;;;;;;;10.23;100.00;99709.02;4896708;57;1143039;-69
2023/10/22 03:35:24;;;;;;;43.65;28.60;;;;;;;10.25;100.00;99708.36;4875828;58;1143674;-68
2023/10/22 03:40:31;;;;;;;48.10;30.00;;;;;;;10.31;100.00;99714.92;4702896;59;1142893;-68
2023/10/22 03:45:37;;;;;;;55.43;33.33;;;;;;;10.30;100.00;99714.09;4742951;59;1143312;-69
2023/10/22 03:50:47;;;;;;;43.30;29.40;;;;;;;10.28;100.00;99714.70;4932169;57;1143032;-69
2023/10/22 03:55:52;;;;;;;53.73;33.93;;;;;;;10.26;100.00;99725.89;4983079;56;1143249;-69
2023/10/22 04:00:58;;;;;;;62.80;37.73;;;;;;;10.29;100.00;99715.05;4888690;57;1142923;-67
2023/10/22 04:06:04;;;;;;;62.53;35.93;;;;;;;10.40;100.00;99731.27;4825698;59;1142625;-70
2023/10/22 04:11:09;;;;;;;55.60;33.63;;;;;;;10.52;100.00;99731.52;4885849;58;1143580;-70
2023/10/22 04:16:17;;;;;;;65.85;36.85;;;;;;;10.63;100.00;99731.38;4742399;60;1142850;-68
2023/10/22 04:21:23;;;;;;;64.32;36.63;;;;;;;10.72;100.00;99736.30;4978646;57;1143106;-66
2023/10/22 04:26:29;;;;;;;53.00;35.33;;;;;;;10.79;100.00;99737.44;4979558;57;1143125;-66
2023/10/22 04:31:36;;;;;;;52.10;32.83;;;;;;;10.78;100.00;99730.47;4890190;57;1144469;-69
2023/10/22 04:36:41;;;;;;;48.10;31.67;;;;;;;10.74;100.00;99723.78;4901944;57;1143034;-67
2023/10/22 04:41:47;;;;;;;57.70;33.93;;;;;;;10.74;100.00;99713.20;4910929;58;1143135;-69
2023/10/22 04:46:53;;;;;;;54.58;34.05;;;;;;;10.75;100.00;99709.59;4773202;59;1143244;-69
2023/10/22 04:51:59;;;;;;;50.13;32.80;;;;;;;10.78;100.00;99713.28;4841811;58;1142967;-71
2023/10/22 04:57:05;;;;;;;54.43;31.50;;;;;;;10.82;100.00;99716.00;4820784;58;1143198;-69
2023/10/22 05:02:10;;;;;;;49.27;32.03;;;;;;;10.84;100.00;99710.09;4820325;58;1142885;-69
2023/10/22 05:07:17;;;;;;;46.80;29.72;;;;;;;10.87;100.00;99704.48;4852251;57;1143030;-69
2023/10/22 05:12:23;;;;;;;51.37;29.93;;;;;;;10.90;100.00;99706.38;4913540;56;1144984;-69
2023/10/22 05:17:29;;;;;;;40.97;28.33;;;;;;;10.91;100.00;99712.02;4908929;57;1143007;-70
2023/10/22 05:22:35;;;;;;;44.70;28.73;;;;;;;10.88;100.00;99707.48;4933997;58;1143108;-67
2023/10/22 05:27:40;;;;;;;42.40;27.93;;;;;;;10.86;100.00;99713.40;4783420;58;1143303;-69
2023/10/22 05:32:46;;;;;;;45.13;29.27;;;;;;;10.88;100.00;99722.03;4741073;57;1143578;-68
2023/10/22 05:37:52;;;;;;;50.43;27.35;;;;;;;10.94;100.00;99734.72;4898032;58;1143032;-69
2023/10/22 05:42:57;;;;;;;41.17;29.47;;;;;;;11.02;100.00;99741.93;4938222;57;1142852;-70
2023/10/22 05:48:03;;;;;;;40.27;25.70;;;;;;;11.03;100.00;99747.58;4975128;56;1142811;-68
2023/10/22 05:53:09;;;;;;;44.30;25.67;;;;;;;11.02;100.00;99749.38;4973150;56;1143120;-67
2023/10/22 05:58:14;;;;;;;33.53;24.30;;;;;;;11.03;100.00;99760.80;4877736;57;1143039;-68
2023/10/22 06:03:20;;;;;;;33.98;24.07;;;;;;;11.04;100.00;99756.70;4884181;58;1143102;-69
2023/10/22 06:08:26;;;;;;;35.15;23.47;;;;;;;11.07;100.00;99761.72;4893190;58;1143856;-70
2023/10/22 06:13:32;;;;;;;30.90;21.85;;;;;;;11.06;100.00;99752.10;4808486;59;1143040;-69
2023/10/22 06:18:38;;;;;;;32.43;23.03;;;;;;;11.08;100.00;99759.91;4912652;57;1143066;-67
2023/10/22 06:23:44;;;;;;;32.53;22.90;;;;;;;11.09;100.00;99762.91;4900285;57;1143264;-65
2023/10/22 06:28:51;;;;;;;45.53;23.07;;;;;;;11.10;100.00;99765.41;4792773;59;1143164;-68
2023/10/22 06:33:56;;;;;;;35.00;24.10;;;;;;;11.13;100.00;99755.88;4935184;57;1143328;-66
2023/10/22 06:39:02;;;;;;;38.93;22.23;;;;;;;11.13;100.00;99754.55;4780027;60;1142896;-68
2023/10/22 06:44:07;;;;;;;34.00;24.17;;;;;;;11.17;100.00;99756.40;4660084;60;1143158;-67
2023/10/22 06:49:13;;;;;;;35.07;24.00;;;;;;;11.19;100.00;99752.64;4838638;58;1143311;-67
2023/10/22 06:54:19;;;;;;;32.97;23.27;;;;;;;11.25;100.00;99754.73;4815055;58;1143268;-69
2023/10/22 06:59:25;;;;;;;33.33;22.52;;;;;;;11.33;100.00;99749.20;4822690;58;1143056;-70
2023/10/22 07:04:30;;;;;;;29.57;21.97;;;;;;;11.34;100.00;99752.20;4840381;58;1143032;-68
2023/10/22 07:09:36;;;;;;;31.10;22.37;;;;;;;11.33;100.00;99753.17;4820077;58;1142841;-67
2023/10/22 07:14:42;;;;;;;32.83;22.87;;;;;;;11.40;100.00;99767.03;4879155;58;1143238;-69
2023/10/22 07:19:47;;;;;;;35.23;22.83;;;;;;;11.44;100.00;99771.08;4912066;57;1143115;-68
2023/10/22 07:24:53;;;;;;;36.97;24.67;;;;;;;11.51;100.00;99769.52;4793748;60;1143117;-68
2023/10/22 07:30:01;;;;;;;43.10;25.80;;;;;;;11.53;100.00;99770.20;4786581;58;1143203;-69
2023/10/22 07:35:08;;;;;;;34.53;23.43;;;;;;;11.51;100.00;99774.81;4905018;57;1143070;-67
2023/10/22 07:40:15;;;;;;;34.57;23.53;;;;;;;11.49;100.00;99778.08;4913124;57;1143150;-67
2023/10/22 07:45:21;;;;;;;35.33;23.07;;;;;;;11.47;100.00;99782.69;4785977;59;1143417;-67
2023/10/22 07:50:26;;;;;;;35.38;25.02;;;;;;;11.48;100.00;99785.67;4793283;59;1144050;-71
2023/10/22 07:55:33;;;;;;;44.10;28.25;;;;;;;11.52;100.00;99784.91;4767811;59;1142927;-68
2023/10/22 08:00:48;;;;;;;42.53;30.27;;;;;;;11.57;100.00;99780.03;4902657;57;1143106;-74
2023/10/22 08:06:01;;;;;;;55.40;38.08;;;;;;;11.62;100.00;99782.58;4845243;57;1143183;-75
2023/10/22 08:11:16;;;;;;;59.80;36.27;;;;;;;11.68;100.00;99782.99;4877928;57;1143017;-78
2023/10/22 08:16:34;;;;;;;55.97;36.33;;;;;;;11.71;100.00;99776.92;4802144;58;1143295;-76
2023/10/22 08:21:48;;;;;;;74.57;41.90;;;;;;;11.70;100.00;99784.52;4924455;57;1143062;-80
2023/10/22 08:27:04;;;;;;;60.77;35.90;;;;;;;11.73;100.00;99792.19;4767891;59;1143419;-73
2023/10/22 08:32:12;;;;;;;51.43;32.80;;;;;;;11.77;100.00;99782.98;4863829;57;1142847;-80
2023/10/22 08:37:22;;;;;;;55.93;34.23;;;;;;;11.79;100.00;99782.84;4796948;58;1143404;-76
2023/10/22 08:42:29;;;;;;;72.53;42.65;;;;;;;11.81;100.00;99777.75;4726709;60;1143076;-84
2023/10/22 08:47:36;;;;;;;65.78;47.85;;;;;;;11.82;100.00;99774.61;4971708;57;1143264;-76
2023/10/22 08:52:42;;;;;;;46.30;30.83;;;;;;;11.82;100.00;99775.45;4926566;57;1142932;-76
2023/10/22 08:57:52;;;;;;;49.23;29.70;;;;;;;11.83;100.00;99764.36;4757836;58;1143379;-76
2023/10/22 09:03:02;;;;;;;52.73;30.70;;;;;;;11.81;100.00;99762.34;4808220;58;1143347;-78
2023/10/22 09:08:09;;;;;;;66.03;40.67;;;;;;;11.88;100.00;99772.72;4816392;59;1143142;-75
2023/10/22 09:13:25;;;;;;;64.85;37.88;;;;;;;11.88;100.00;99778.02;4952722;57;1143018;-80
2023/10/22 09:18:31;;;;;;;55.23;34.10;;;;;;;11.88;100.00;99788.13;4790099;59;1143035;-78
2023/10/22 09:23:49;;;;;;;47.53;29.90;;;;;;;11.93;100.00;99791.16;4772549;59;1143268;-71
2023/10/22 09:29:12;;;;;;;54.97;33.03;;;;;;;12.00;100.00;99789.26;4719999;58;1143216;-84
2023/10/22 09:34:35;;;;;;;50.23;31.57;;;;;;;12.03;100.00;99794.27;4864081;57;1143255;-71
2023/10/22 09:40:02;;;;;;;42.00;28.87;;;;;;;12.06;100.00;99796.15;4766891;58;1143184;-77
2023/10/22 09:45:19;;;;;;;51.83;33.80;;;;;;;12.16;100.00;99793.44;4881117;57;1142808;-84
2023/10/22 09:50:36;;;;;;;36.20;24.93;;;;;;;12.21;100.00;99784.08;4712212;59;1142962;-76
2023/10/22 09:55:52;;;;;;;38.33;26.90;;;;;;;12.27;100.00;99786.61;4857502;57;1143566;-83
2023/10/22 10:01:09;;;;;;;31.13;22.57;;;;;;;12.32;100.00;99783.03;4878115;57;1143045;-71
2023/10/22 10:06:39;;;;;;;31.95;21.70;;;;;;;12.37;100.00;99777.30;4921064;56;1143324;-80
2023/10/22 10:12:10;;;;;;;67.23;35.73;;;;;;;12.38;100.00;99781.09;4953320;56;1143521;-84
2023/10/22 10:17:26;;;;;;;44.43;28.63;;;;;;;12.38;100.00;99777.12;4824106;57;1143269;-75
2023/10/22 10:22:49;;;;;;;59.63;31.05;;;;;;;12.38;100.00;99766.52;4839691;57;1143251;-80
2023/10/22 10:28:13;;;;;;;68.17;37.13;;;;;;;12.51;100.00;99774.14;4862174;57;1143033;-73
2023/10/22 10:33:18;;;;;;;49.23;28.57;;;;;;;12.62;100.00;99771.27;4893084;58;1143201;-74
2023/10/22 10:38:28;;;;;;;80.93;61.07;;;;;;;12.60;100.00;99778.05;4787328;59;1142981;-72
2023/10/22 10:44:06;;;;;;;30.75;22.05;;;;;;;12.58;100.00;99768.56;4802745;58;1143149;-71
2023/10/22 10:49:12;;;;;;;33.03;23.87;;;;;;;12.54;100.00;99770.67;4737489;59;1143144;-73
2023/10/22 10:54:17;;;;;;;44.97;28.10;;;;;;;12.54;100.00;99769.34;4674434;60;1143001;-77
2023/10/22 10:59:31;;;;;;;42.10;28.37;;;;;;;12.57;100.00;99766.89;4759906;59;1143042;-71
2023/10/22 11:04:39;;;;;;;37.50;25.67;;;;;;;12.58;100.00;99771.21;4792605;59;1143187;-71
2023/10/22 11:09:45;;;;;;;34.47;24.97;;;;;;;12.57;100.00;99773.03;4758113;60;1143383;-74
2023/10/22 11:14:57;;;;;;;40.60;27.10;;;;;;;12.61;100.00;99781.53;4610825;61;1143095;-77
2023/10/22 11:20:04;;;;;;;44.50;27.10;;;;;;;12.60;100.00;99786.00;4635272;61;1143169;-86
2023/10/22 11:25:12;;;;;;;36.80;26.03;;;;;;;12.60;100.00;99795.28;4716330;59;1143340;-70
2023/10/22 11:30:38;;;;;;;31.80;23.40;;;;;;;12.56;100.00;99791.25;4716855;59;1143080;-80
2023/10/22 11:35:44;;;;;;;32.90;23.60;;;;;;;12.56;100.00;99799.70;4785674;59;1142857;-87
2023/10/22 11:40:58;;;;;;;36.47;25.03;;;;;;;12.52;100.00;99805.83;4790669;60;1142899;-75
2023/10/22 11:46:04;;;;;;;37.43;27.00;;;;;;;12.50;100.00;99811.77;4925295;58;1142924;-73
2023/10/22 11:51:09;;;;;;;43.60;29.50;;;;;;;12.48;100.00;99817.70;4899111;57;1143081;-77
2023/10/22 11:56:15;;;;;;;46.97;30.70;;;;;;;12.46;100.00;99826.78;4940387;58;1142988;-81
2023/10/22 12:01:21;;;;;;;40.33;28.50;;;;;;;12.41;100.00;99827.70;4801248;59;1142909;-74
2023/10/22 12:06:27;;;;;;;45.17;29.33;;;;;;;12.36;100.00;99833.97;4879376;57;1152501;-74
2023/10/22 12:11:32;;;;;;;55.83;35.13;;;;;;;12.29;100.00;99838.52;4908270;57;1143158;-74
2023/10/22 12:16:38;;;;;;;46.95;32.50;;;;;;;12.28;100.00;99842.64;4956239;57;1142961;-76
2023/10/22 12:21:43;;;;;;;49.27;30.35;;;;;;;12.27;100.00;99849.75;4988294;56;1142946;-81
2023/10/22 12:26:49;;;;;;;47.03;30.00;;;;;;;12.28;100.00;99847.45;4982403;57;1143091;-74
2023/10/22 12:31:54;;;;;;;39.65;27.37;;;;;;;12.29;100.00;99840.33;4791600;59;1143368;-74
2023/10/22 12:37:00;;;;;;;41.20;26.30;;;;;;;12.28;100.00;99843.47;4808726;59;1143044;-74
2023/10/22 12:42:06;;;;;;;44.10;29.97;;;;;;;12.32;100.00;99857.28;4838666;57;1143102;-77
2023/10/22 12:47:13;;;;;;;59.33;35.27;;;;;;;12.32;100.00;99855.47;4746557;59;1143039;-76
2023/10/22 12:52:19;;;;;;;40.57;28.37;;;;;;;12.35;100.00;99858.81;4844557;58;1143070;-72
2023/10/22 12:57:25;;;;;;;47.67;32.23;;;;;;;12.34;100.00;99863.28;4903091;57;1143138;-78
2023/10/22 13:02:33;;;;;;;50.40;30.13;;;;;;;12.31;100.00;99863.56;4789319;60;1143178;-75
2023/10/22 13:07:38;;;;;;;42.30;29.18;;;;;;;12.28;100.00;99873.97;4808522;59;1143032;-72
2023/10/22 13:12:43;;;;;;;41.65;27.02;;;;;;;12.24;100.00;99875.23;4776317;59;1143176;-82
2023/10/22 13:17:49;;;;;;;47.57;29.73;;;;;;;12.20;100.00;99884.97;4820765;58;1143153;-82
2023/10/22 13:22:54;;;;;;;43.80;29.23;;;;;;;12.15;100.00;99890.69;4820718;58;1142925;-73
2023/10/22 13:28:00;;;;;;;44.03;29.07;;;;;;;12.13;100.00;99890.48;4847484;58;1143045;-72
2023/10/22 13:33:06;;;;;;;35.77;23.90;;;;;;;12.09;100.00;99893.06;4866719;57;1143312;-73
2023/10/22 13:38:11;;;;;;;34.60;24.97;;;;;;;12.05;100.00;99897.01;4866004;59;1143256;-78
2023/10/22 13:43:17;;;;;;;36.47;22.87;;;;;;;12.02;100.00;99906.08;4885310;58;1142785;-74
2023/10/22 13:48:22;;;;;;;32.07;23.43;;;;;;;11.98;100.00;99910.82;4922955;57;1142613;-78
2023/10/22 13:53:28;;;;;;;34.73;23.10;;;;;;;11.97;100.00;99913.12;4971816;57;1143019;-78
2023/10/22 13:58:34;;;;;;;31.33;21.65;;;;;;;11.94;100.00;99916.05;4811598;59;1143243;-77
2023/10/22 14:03:40;;;;;;;28.57;21.17;;;;;;;11.91;100.00;99917.69;4788634;59;1143019;-73
2023/10/22 14:08:46;;;;;;;26.57;20.37;;;;;;;11.91;100.00;99920.34;4898502;58;1143113;-73
2023/10/22 14:13:53;;;;;;;32.30;21.15;;;;;;;11.94;100.00;99923.16;4857475;57;1143007;-72
2023/10/22 14:18:58;;;;;;;37.53;24.80;;;;;;;11.95;100.00;99926.16;4809459;60;1143172;-75
2023/10/22 14:24:04;;;;;;;34.23;22.97;;;;;;;11.94;100.00;99939.06;4911693;57;1143352;-80
2023/10/22 14:29:10;;;;;;;32.60;19.27;;;;;;;11.96;100.00;99939.76;4806465;57;1143230;-74
2023/10/22 14:34:18;;;;;;;33.20;18.33;;;;;;;11.96;100.00;99938.44;4908740;57;1143111;-79
2023/10/22 14:39:24;;;;;;;31.00;18.97;;;;;;;11.91;100.00;99946.00;4883447;57;1143714;-74
2023/10/22 14:44:30;;;;;;;27.63;14.83;;;;;;;11.86;100.00;99949.55;4827508;58;1143383;-75
2023/10/22 14:49:36;;;;;;;33.65;18.67;;;;;;;11.86;100.00;99957.50;4791517;59;1143126;-78
2023/10/22 14:54:41;;;;;;;27.62;16.37;;;;;;;11.83;100.00;99961.27;4907217;57;1142999;-79
2023/10/22 14:59:47;;;;;;;25.20;16.07;;;;;;;11.81;100.00;99962.37;4788837;59;1143121;-74
2023/10/22 15:04:53;;;;;;;26.52;16.10;;;;;;;11.81;100.00;99968.51;4784752;59;1143241;-74
2023/10/22 15:09:58;;;;;;;21.67;15.53;;;;;;;11.80;100.00;99980.08;4847236;58;1143725;-70
2023/10/22 15:15:05;;;;;;;24.13;19.90;;;;;;;11.79;100.00;99970.45;4889493;58;1143110;-70
2023/10/22 15:20:11;;;;;;;24.70;19.63;;;;;;;11.80;100.00;99980.56;4895172;57;1142985;-71
2023/10/22 15:25:17;;;;;;;23.03;14.83;;;;;;;11.77;100.00;99990.95;4810813;60;1143504;-74
2023/10/22 15:30:24;;;;;;;22.97;13.83;;;;;;;11.80;100.00;99992.48;4878058;58;1143123;-73
2023/10/22 15:35:30;;;;;;;17.57;12.30;;;;;;;11.82;100.00;99990.55;4867052;59;1143526;-70
2023/10/22 15:40:36;;;;;;;18.32;11.18;;;;;;;11.80;100.00;99996.47;4939695;57;1143114;-70
2023/10/22 15:45:49;;;;;;;16.37;11.40;;;;;;;11.78;100.00;100001.06;4862375;59;1143402;-75
2023/10/22 15:50:55;;;;;;;14.83;10.20;;;;;;;11.73;100.00;100013.39;4789772;60;1144977;-75
2023/10/22 15:56:08;;;;;;;12.20;9.30;;;;;;;11.70;100.00;100011.01;4789144;58;1145305;-73
2023/10/22 16:01:21;;;;;;;12.60;8.93;;;;;;;11.68;100.00;100020.91;4916398;58;1142864;-71
2023/10/22 16:06:27;;;;;;;13.22;9.53;;;;;;;11.66;100.00;100032.12;4819962;58;1143043;-76
2023/10/22 16:11:32;;;;;;;15.47;9.03;;;;;;;11.63;100.00;100031.06;4892031;58;1143115;-75
2023/10/22 16:16:38;;;;;;;13.50;8.58;;;;;;;11.60;100.00;100036.18;4807005;60;1143190;-74
2023/10/22 16:21:44;;;;;;;13.48;8.45;;;;;;;11.60;100.00;100041.48;4789621;60;1143358;-74
2023/10/22 16:26:51;;;;;;;10.60;7.43;;;;;;;11.58;100.00;100050.04;4789986;59;1143220;-74
2023/10/22 16:31:57;;;;;;;17.37;6.62;;;;;;;11.56;100.00;100074.98;4712374;60;1143339;-72
2023/10/22 16:37:03;;;;;;;10.72;6.28;;;;;;;11.50;100.00;100083.45;4773386;59;1142870;-77
2023/10/22 16:42:08;;;;;;;9.30;5.67;;;;;;;11.47;100.00;100078.42;4969569;57;1143064;-73
2023/10/22 16:47:14;;;;;;;7.63;5.63;;;;;;;11.53;100.00;100071.27;4790983;58;1140821;-74
2023/10/22 16:52:20;;;;;;;6.40;5.43;;;;;;;11.61;100.00;100071.41;4770862;59;1141184;-75
2023/10/22 16:57:25;;;;;;;8.23;5.43;;;;;;;11.63;100.00;100098.61;4684218;60;1140832;-72
2023/10/22 17:02:31;;;;;;;8.87;4.77;;;;;;;11.61;100.00;100093.45;4890699;58;1141195;-75
2023/10/22 17:07:37;;;;;;;17.48;10.40;;;;;;;11.60;100.00;100105.53;4921793;58;1140912;-74
2023/10/22 17:12:42;;;;;;;38.60;15.15;;;;;;;11.60;100.00;100095.77;4870455;58;1145121;-74
2023/10/22 17:17:48;;;;;;;15.93;6.90;;;;;;;11.69;100.00;100111.33;4791530;60;1145287;-76
2023/10/22 17:22:53;;;;;;;6.03;3.75;;;;;;;11.67;100.00;100119.05;4790246;59;1143293;-76
2023/10/22 17:27:59;;;;;;;7.47;4.60;;;;;;;11.66;100.00;100121.34;4780603;60;1141506;-73
2023/10/22 17:33:04;;;;;;;5.93;4.43;;;;;;;11.62;100.00;100119.45;4880839;57;1141633;-74
2023/10/22 17:38:10;;;;;;;5.60;3.90;;;;;;;11.60;100.00;100131.53;4883290;58;1140772;-76
2023/10/22 17:43:16;;;;;;;5.27;4.67;;;;;;;11.56;100.00;100128.80;4802022;59;1140896;-77
2023/10/22 17:48:21;;;;;;;10.50;5.23;;;;;;;11.56;100.00;100130.11;4707772;60;1140910;-75
2023/10/22 17:53:27;;;;;;;7.17;5.07;;;;;;;11.54;100.00;100130.73;4754986;59;1143249;-71
2023/10/22 17:58:33;;;;;;;10.70;7.63;;;;;;;11.52;100.00;100130.51;4738028;59;1141105;-73
2023/10/22 18:03:39;;;;;;;15.88;8.65;;;;;;;11.51;100.00;100132.32;4914620;57;1143116;-73
2023/10/22 18:08:45;;;;;;;10.63;7.63;;;;;;;11.48;100.00;100133.91;4820548;58;1143314;-76
2023/10/22 18:13:51;;;;;;;10.00;8.33;;;;;;;11.45;100.00;100142.63;4810850;59;1143459;-72
2023/10/22 18:18:57;;;;;;;12.27;8.70;;;;;;;11.40;100.00;100150.13;4930799;57;1142924;-75
2023/10/22 18:24:03;;;;;;;13.77;10.57;;;;;;;11.35;100.00;100152.32;4806384;58;1142818;-72
2023/10/22 18:29:09;;;;;;;14.00;9.80;;;;;;;11.31;100.00;100147.77;4945399;57;1145292;-74
2023/10/22 18:34:15;;;;;;;12.13;8.50;;;;;;;11.28;100.00;100150.70;4729619;59;1142923;-71
2023/10/22 18:39:21;;;;;;;12.57;9.73;;;;;;;11.26;100.00;100165.39;4711887;59;1143089;-74
2023/10/22 18:44:28;;;;;;;18.60;11.33;;;;;;;11.23;100.00;100171.44;4714268;59;1142951;-77
2023/10/22 18:49:34;;;;;;;16.12;12.13;;;;;;;11.21;100.00;100180.83;4737278;60;1145200;-77
2023/10/22 18:54:39;;;;;;;13.05;10.32;;;;;;;11.17;100.00;100181.21;4816635;58;1145007;-72
2023/10/22 18:59:49;;;;;;;12.97;10.00;;;;;;;11.14;100.00;100195.57;4869776;57;1144970;-71
2023/10/22 19:04:55;;;;;;;11.65;8.38;;;;;;;11.11;100.00;100192.34;4730178;59;1145342;-75
2023/10/22 19:10:00;;;;;;;16.70;8.77;;;;;;;11.08;100.00;100206.66;4910328;58;1143151;-74
2023/10/22 19:15:07;;;;;;;11.57;7.90;;;;;;;11.04;100.00;100203.91;4737737;59;1143114;-74
2023/10/22 19:20:13;;;;;;;16.93;8.40;;;;;;;11.00;100.00;100205.65;4870863;57;1143073;-75
2023/10/22 19:25:18;;;;;;;9.80;7.53;;;;;;;10.96;100.00;100212.16;4951027;57;1143056;-76
2023/10/22 19:30:24;;;;;;;11.57;8.63;;;;;;;10.92;100.00;100216.86;4758499;58;1140965;-73
2023/10/22 19:35:30;;;;;;;12.30;7.63;;;;;;;10.88;100.00;100220.72;4756540;59;1143273;-73
2023/10/22 19:40:36;;;;;;;12.83;8.10;;;;;;;10.83;100.00;100226.42;4885257;57;1143463;-74
2023/10/22 19:45:53;;;;;;;14.77;9.30;;;;;;;10.78;100.00;100225.95;4906767;57;1143146;-75
2023/10/22 19:51:02;;;;;;;12.70;7.70;;;;;;;10.76;100.00;100231.84;4891564;58;1143127;-74
2023/10/22 19:56:15;;;;;;;16.10;9.40;;;;;;;10.75;100.00;100227.52;4731357;59;1143296;-73
2023/10/22 20:01:20;;;;;;;;;;;;;;;10.73;100.00;100231.25;4910225;58;1143120;-73
2023/10/22 20:06:26;;;;;;;9.93;8.43;;;;;;;10.73;100.00;100237.87;4790534;59;978303;-74
2023/10/22 20:11:31;;;;;;;14.93;9.17;;;;;;;10.70;100.00;100238.95;4906262;58;1139120;-75
2023/10/22 20:16:37;;;;;;;17.70;9.50;;;;;;;10.71;100.00;100249.89;4914274;57;1142870;-72
2023/10/22 20:21:43;;;;;;;18.02;9.00;;;;;;;10.72;100.00;100248.09;4902407;56;1143058;-74
2023/10/22 20:26:48;;;;;;;16.25;9.35;;;;;;;10.69;100.00;100253.66;4788066;58;1142824;-71
2023/10/22 20:31:54;;;;;;;19.52;11.85;;;;;;;10.66;100.00;100257.87;4711583;60;1143123;-75
2023/10/22 20:37:05;;;;;;;20.37;11.53;;;;;;;10.64;100.00;100263.28;4737514;60;1144884;-72
2023/10/22 20:42:07;;;;;;;20.33;10.50;;;;;;;10.64;100.00;100261.12;4719090;60;1145427;-74
2023/10/22 20:47:13;;;;;;;15.55;10.40;;;;;;;10.67;100.00;100264.36;4776501;59;1144959;-74
2023/10/22 20:52:19;;;;;;;16.07;9.40;;;;;;;10.71;100.00;100271.53;4742782;59;1145226;-70
2023/10/22 20:57:25;;;;;;;21.17;11.73;;;;;;;10.74;100.00;100271.29;4734213;60;1142928;-72
2023/10/22 21:02:32;;;;;;;24.33;11.90;;;;;;;10.75;100.00;100275.62;4701876;60;1145004;-74
2023/10/22 21:07:38;;;;;;;21.70;12.10;;;;;;;10.76;100.00;100282.11;4761786;57;1145011;-71
2023/10/22 21:12:44;;;;;;;17.77;11.18;;;;;;;10.74;100.00;100284.52;4733801;60;1145012;-72
2023/10/22 21:17:50;;;;;;;20.37;9.77;;;;;;;10.71;100.00;100286.92;4784055;59;1144880;-72
2023/10/22 21:22:55;;;;;;;16.23;9.27;;;;;;;10.69;100.00;100284.91;4914107;57;1143456;-73
2023/10/22 21:28:01;;;;;;;15.73;10.17;;;;;;;10.68;100.00;100283.72;4929135;58;1143242;-68
2023/10/22 21:33:06;;;;;;;17.57;11.23;;;;;;;10.69;100.00;100287.56;4892625;58;1144865;-73
2023/10/22 21:38:12;;;;;;;13.37;9.80;;;;;;;10.70;100.00;100292.34;4791184;58;1145242;-69
2023/10/22 21:43:18;;;;;;;15.60;10.00;;;;;;;10.72;100.00;100286.44;4809887;59;1143349;-71
2023/10/22 21:48:24;;;;;;;15.50;10.17;;;;;;;10.72;100.00;100288.61;4788944;59;1145157;-72
2023/10/22 21:53:29;;;;;;;15.30;9.57;;;;;;;10.72;100.00;100287.28;4910943;57;1144965;-70
2023/10/22 21:58:35;;;;;;;18.50;9.10;;;;;;;10.71;100.00;100286.08;4807751;59;1258622;-71
2023/10/22 22:03:41;;;;;;;17.52;10.25;;;;;;;10.70;100.00;100288.37;4792449;59;1143149;-70
2023/10/22 22:08:47;;;;;;;15.98;9.70;;;;;;;10.68;100.00;100300.91;4790769;58;1145113;-70
2023/10/22 22:13:53;;;;;;;15.15;9.33;;;;;;;10.63;100.00;100303.08;4824917;57;1142976;-71
2023/10/22 22:18:58;;;;;;;14.07;9.70;;;;;;;10.57;100.00;100303.92;4918842;58;1142994;-70
2023/10/22 22:24:04;;;;;;;13.17;9.07;;;;;;;10.55;100.00;100304.52;4791676;58;1143054;-73
2023/10/22 22:29:10;;;;;;;22.50;9.97;;;;;;;10.54;100.00;100313.41;4758536;59;1143064;-69
2023/10/22 22:34:15;;;;;;;15.17;10.17;;;;;;;10.54;100.00;100329.80;4736803;60;1143969;-71
2023/10/22 22:39:21;;;;;;;16.30;9.60;;;;;;;10.52;100.00;100329.07;4813295;58;1145214;-69
2023/10/22 22:44:27;;;;;;;13.73;9.27;;;;;;;10.49;100.00;100340.73;4821311;57;1143414;-71